sensor_id;sensor_type;location;lat;lon;timestamp;temperature;humidity
20481;DHT22;10399;50.754;3.366;2023-04-28T00:00:35;12.70;99.90
20481;DHT22;10399;50.754;3.366;2023-04-28T00:03:02;12.80;99.90
20481;DHT22;10399;50.754;3.366;2023-04-28T00:05:30;12.80;99.90
20481;DHT22;10399;50.754;3.366;2023-04-28T00:07:57;12.80;99.90
20481;DHT22;10399;50.754;3.366;2023-04-28T00:10:24;12.80;99.90
20481;DHT22;10399;50.754;3.366;2023-04-28T00:12:52;12.70;99.90
20481;DHT22;10399;50.754;3.366;2023-04-28T00:15:19;12.80;99.90
20481;DHT22;10399;50.754;3.366;2023-04-28T00:17:46;12.80;99.90
20481;DHT22;10399;50.754;3.366;2023-04-28T00:20:14;12.80;99.90
20481;DHT22;10399;50.754;3.366;2023-04-28T00:22:41;12.80;99.90
20481;DHT22;10399;50.754;3.366;2023-04-28T00:25:09;12.80;99.90
20481;DHT22;10399;50.754;3.366;2023-04-28T00:27:36;12.70;99.90
20481;DHT22;10399;50.754;3.366;2023-04-28T00:30:03;12.70;99.90
20481;DHT22;10399;50.754;3.366;2023-04-28T00:32:30;12.70;99.90
20481;DHT22;10399;50.754;3.366;2023-04-28T00:34:57;12.80;99.90
20481;DHT22;10399;50.754;3.366;2023-04-28T00:37:24;12.80;99.90
20481;DHT22;10399;50.754;3.366;2023-04-28T00:39:55;12.90;99.90
20481;DHT22;10399;50.754;3.366;2023-04-28T00:42:22;13.00;99.90
20481;DHT22;10399;50.754;3.366;2023-04-28T00:44:49;13.00;99.90
20481;DHT22;10399;50.754;3.366;2023-04-28T00:47:17;13.00;99.90
20481;DHT22;10399;50.754;3.366;2023-04-28T00:49:44;13.00;99.90
20481;DHT22;10399;50.754;3.366;2023-04-28T00:52:13;13.00;99.90
20481;DHT22;10399;50.754;3.366;2023-04-28T00:54:40;13.00;99.90
20481;DHT22;10399;50.754;3.366;2023-04-28T00:57:09;13.00;99.90
20481;DHT22;10399;50.754;3.366;2023-04-28T00:59:36;13.10;99.90
20481;DHT22;10399;50.754;3.366;2023-04-28T01:02:04;13.20;99.90
20481;DHT22;10399;50.754;3.366;2023-04-28T01:04:34;13.30;99.90
20481;DHT22;10399;50.754;3.366;2023-04-28T01:07:02;13.30;99.90
20481;DHT22;10399;50.754;3.366;2023-04-28T01:09:29;13.20;99.90
20481;DHT22;10399;50.754;3.366;2023-04-28T01:11:56;13.10;99.90
20481;DHT22;10399;50.754;3.366;2023-04-28T01:14:24;13.20;99.90
20481;DHT22;10399;50.754;3.366;2023-04-28T01:16:52;13.10;99.90
20481;DHT22;10399;50.754;3.366;2023-04-28T01:19:21;13.00;99.90
20481;DHT22;10399;50.754;3.366;2023-04-28T01:21:48;13.10;99.90
20481;DHT22;10399;50.754;3.366;2023-04-28T01:24:16;13.10;99.90
20481;DHT22;10399;50.754;3.366;2023-04-28T01:26:43;13.10;99.90
20481;DHT22;10399;50.754;3.366;2023-04-28T01:29:12;13.10;99.90
20481;DHT22;10399;50.754;3.366;2023-04-28T01:31:39;12.80;99.90
20481;DHT22;10399;50.754;3.366;2023-04-28T01:34:10;12.70;99.90
20481;DHT22;10399;50.754;3.366;2023-04-28T01:36:37;12.60;99.90
20481;DHT22;10399;50.754;3.366;2023-04-28T01:39:04;12.60;99.90
20481;DHT22;10399;50.754;3.366;2023-04-28T01:41:31;12.60;99.90
20481;DHT22;10399;50.754;3.366;2023-04-28T01:44:01;12.60;99.90
20481;DHT22;10399;50.754;3.366;2023-04-28T01:46:28;12.60;99.90
20481;DHT22;10399;50.754;3.366;2023-04-28T01:48:55;12.50;99.90
20481;DHT22;10399;50.754;3.366;2023-04-28T01:51:22;12.50;99.90
20481;DHT22;10399;50.754;3.366;2023-04-28T01:53:49;12.50;99.90
20481;DHT22;10399;50.754;3.366;2023-04-28T01:56:16;12.50;99.90
20481;DHT22;10399;50.754;3.366;2023-04-28T01:58:43;12.50;99.90
20481;DHT22;10399;50.754;3.366;2023-04-28T02:01:10;12.50;99.90
20481;DHT22;10399;50.754;3.366;2023-04-28T02:03:38;12.50;99.90
20481;DHT22;10399;50.754;3.366;2023-04-28T02:06:06;12.60;99.90
20481;DHT22;10399;50.754;3.366;2023-04-28T02:08:33;12.60;99.90
20481;DHT22;10399;50.754;3.366;2023-04-28T02:11:00;12.70;99.90
20481;DHT22;10399;50.754;3.366;2023-04-28T02:13:27;12.60;99.90
20481;DHT22;10399;50.754;3.366;2023-04-28T02:15:54;12.60;99.90
20481;DHT22;10399;50.754;3.366;2023-04-28T02:18:21;12.70;99.90
20481;DHT22;10399;50.754;3.366;2023-04-28T02:20:48;12.70;99.90
20481;DHT22;10399;50.754;3.366;2023-04-28T02:23:15;12.80;99.90
20481;DHT22;10399;50.754;3.366;2023-04-28T02:25:42;12.90;99.90
20481;DHT22;10399;50.754;3.366;2023-04-28T02:28:09;12.90;99.90
20481;DHT22;10399;50.754;3.366;2023-04-28T02:30:35;12.80;99.90
20481;DHT22;10399;50.754;3.366;2023-04-28T02:33:03;12.90;99.90
20481;DHT22;10399;50.754;3.366;2023-04-28T02:35:30;12.80;99.90
20481;DHT22;10399;50.754;3.366;2023-04-28T02:37:58;12.80;99.90
20481;DHT22;10399;50.754;3.366;2023-04-28T02:40:25;12.90;99.90
20481;DHT22;10399;50.754;3.366;2023-04-28T02:42:52;13.00;99.90
20481;DHT22;10399;50.754;3.366;2023-04-28T02:45:19;13.10;99.90
20481;DHT22;10399;50.754;3.366;2023-04-28T02:47:46;13.20;99.90
20481;DHT22;10399;50.754;3.366;2023-04-28T02:50:14;13.20;99.90
20481;DHT22;10399;50.754;3.366;2023-04-28T02:52:41;13.30;99.90
20481;DHT22;10399;50.754;3.366;2023-04-28T02:55:08;13.30;99.90
20481;DHT22;10399;50.754;3.366;2023-04-28T02:57:35;13.40;99.90
20481;DHT22;10399;50.754;3.366;2023-04-28T03:00:02;13.40;99.90
20481;DHT22;10399;50.754;3.366;2023-04-28T03:02:31;13.60;99.90
20481;DHT22;10399;50.754;3.366;2023-04-28T03:04:58;13.60;99.90
20481;DHT22;10399;50.754;3.366;2023-04-28T03:07:25;13.50;99.90
20481;DHT22;10399;50.754;3.366;2023-04-28T03:09:52;13.70;99.90
20481;DHT22;10399;50.754;3.366;2023-04-28T03:12:19;13.60;99.90
20481;DHT22;10399;50.754;3.366;2023-04-28T03:14:46;13.50;99.90
20481;DHT22;10399;50.754;3.366;2023-04-28T03:17:13;13.70;99.90
20481;DHT22;10399;50.754;3.366;2023-04-28T03:19:40;13.70;99.90
20481;DHT22;10399;50.754;3.366;2023-04-28T03:22:07;13.80;99.90
20481;DHT22;10399;50.754;3.366;2023-04-28T03:24:34;13.80;99.90
20481;DHT22;10399;50.754;3.366;2023-04-28T03:27:01;13.90;99.90
20481;DHT22;10399;50.754;3.366;2023-04-28T03:29:29;13.90;99.90
20481;DHT22;10399;50.754;3.366;2023-04-28T03:31:56;13.80;99.90
20481;DHT22;10399;50.754;3.366;2023-04-28T03:34:23;13.80;99.90
20481;DHT22;10399;50.754;3.366;2023-04-28T03:37:00;13.80;99.90
20481;DHT22;10399;50.754;3.366;2023-04-28T03:39:29;13.90;99.90
20481;DHT22;10399;50.754;3.366;2023-04-28T03:41:56;13.90;99.90
20481;DHT22;10399;50.754;3.366;2023-04-28T03:44:23;14.00;99.90
20481;DHT22;10399;50.754;3.366;2023-04-28T03:46:50;14.10;99.90
20481;DHT22;10399;50.754;3.366;2023-04-28T03:49:18;14.20;99.90
20481;DHT22;10399;50.754;3.366;2023-04-28T03:51:45;14.20;99.90
20481;DHT22;10399;50.754;3.366;2023-04-28T03:54:13;14.20;99.90
20481;DHT22;10399;50.754;3.366;2023-04-28T03:56:40;14.20;99.90
20481;DHT22;10399;50.754;3.366;2023-04-28T03:59:07;14.10;99.90
20481;DHT22;10399;50.754;3.366;2023-04-28T04:01:38;14.30;99.90
20481;DHT22;10399;50.754;3.366;2023-04-28T04:04:05;14.20;99.90
20481;DHT22;10399;50.754;3.366;2023-04-28T04:06:33;14.20;99.90
20481;DHT22;10399;50.754;3.366;2023-04-28T04:09:00;14.20;99.90
20481;DHT22;10399;50.754;3.366;2023-04-28T04:11:27;14.20;99.90
20481;DHT22;10399;50.754;3.366;2023-04-28T04:13:54;14.30;99.90
20481;DHT22;10399;50.754;3.366;2023-04-28T04:16:21;14.20;99.90
20481;DHT22;10399;50.754;3.366;2023-04-28T04:18:48;14.20;99.90
20481;DHT22;10399;50.754;3.366;2023-04-28T04:21:15;14.20;99.90
20481;DHT22;10399;50.754;3.366;2023-04-28T04:23:42;14.50;99.90
20481;DHT22;10399;50.754;3.366;2023-04-28T04:26:09;14.50;99.90
20481;DHT22;10399;50.754;3.366;2023-04-28T04:28:36;14.60;99.90
20481;DHT22;10399;50.754;3.366;2023-04-28T04:31:03;14.60;99.90
20481;DHT22;10399;50.754;3.366;2023-04-28T04:33:30;14.70;99.90
20481;DHT22;10399;50.754;3.366;2023-04-28T04:35:57;14.60;99.90
20481;DHT22;10399;50.754;3.366;2023-04-28T04:38:24;14.70;99.90
20481;DHT22;10399;50.754;3.366;2023-04-28T04:40:51;14.70;99.90
20481;DHT22;10399;50.754;3.366;2023-04-28T04:43:18;14.80;99.90
20481;DHT22;10399;50.754;3.366;2023-04-28T04:45:46;14.70;99.90
20481;DHT22;10399;50.754;3.366;2023-04-28T04:48:14;14.80;99.90
20481;DHT22;10399;50.754;3.366;2023-04-28T04:50:41;14.70;99.90
20481;DHT22;10399;50.754;3.366;2023-04-28T04:53:09;14.70;99.90
20481;DHT22;10399;50.754;3.366;2023-04-28T04:55:41;14.70;99.90
20481;DHT22;10399;50.754;3.366;2023-04-28T04:58:09;14.70;99.90
20481;DHT22;10399;50.754;3.366;2023-04-28T05:00:36;14.80;99.90
20481;DHT22;10399;50.754;3.366;2023-04-28T05:03:04;15.00;99.90
20481;DHT22;10399;50.754;3.366;2023-04-28T05:05:32;15.00;99.90
20481;DHT22;10399;50.754;3.366;2023-04-28T05:08:00;15.10;99.90
20481;DHT22;10399;50.754;3.366;2023-04-28T05:10:28;15.10;99.90
20481;DHT22;10399;50.754;3.366;2023-04-28T05:12:55;15.00;99.90
20481;DHT22;10399;50.754;3.366;2023-04-28T05:15:22;15.10;99.90
20481;DHT22;10399;50.754;3.366;2023-04-28T05:17:49;15.10;99.90
20481;DHT22;10399;50.754;3.366;2023-04-28T05:20:16;15.10;99.90
20481;DHT22;10399;50.754;3.366;2023-04-28T05:22:43;15.00;99.90
20481;DHT22;10399;50.754;3.366;2023-04-28T05:25:10;15.00;99.90
20481;DHT22;10399;50.754;3.366;2023-04-28T05:27:37;15.10;99.90
20481;DHT22;10399;50.754;3.366;2023-04-28T05:30:09;15.20;99.90
20481;DHT22;10399;50.754;3.366;2023-04-28T05:32:37;15.30;99.90
20481;DHT22;10399;50.754;3.366;2023-04-28T05:35:04;15.40;99.90
20481;DHT22;10399;50.754;3.366;2023-04-28T05:37:31;15.40;99.90
20481;DHT22;10399;50.754;3.366;2023-04-28T05:39:58;15.10;99.90
20481;DHT22;10399;50.754;3.366;2023-04-28T05:42:26;15.20;99.90
20481;DHT22;10399;50.754;3.366;2023-04-28T05:44:53;15.30;99.90
20481;DHT22;10399;50.754;3.366;2023-04-28T05:47:20;15.40;99.90
20481;DHT22;10399;50.754;3.366;2023-04-28T05:49:47;15.40;99.90
20481;DHT22;10399;50.754;3.366;2023-04-28T05:52:14;15.40;99.90
20481;DHT22;10399;50.754;3.366;2023-04-28T05:54:41;15.50;99.90
20481;DHT22;10399;50.754;3.366;2023-04-28T05:57:08;15.50;99.90
20481;DHT22;10399;50.754;3.366;2023-04-28T05:59:35;15.60;99.90
20481;DHT22;10399;50.754;3.366;2023-04-28T06:02:02;15.60;99.90
20481;DHT22;10399;50.754;3.366;2023-04-28T06:04:30;15.60;99.90
20481;DHT22;10399;50.754;3.366;2023-04-28T06:06:58;15.50;99.90
20481;DHT22;10399;50.754;3.366;2023-04-28T06:09:25;15.50;99.90
20481;DHT22;10399;50.754;3.366;2023-04-28T06:11:52;15.50;99.90
20481;DHT22;10399;50.754;3.366;2023-04-28T06:14:21;15.40;99.90
20481;DHT22;10399;50.754;3.366;2023-04-28T06:16:48;15.40;99.90
20481;DHT22;10399;50.754;3.366;2023-04-28T06:19:15;15.40;99.90
20481;DHT22;10399;50.754;3.366;2023-04-28T06:21:44;15.30;99.90
20481;DHT22;10399;50.754;3.366;2023-04-28T06:24:12;15.30;99.90
20481;DHT22;10399;50.754;3.366;2023-04-28T06:26:39;15.30;99.90
20481;DHT22;10399;50.754;3.366;2023-04-28T06:29:06;15.40;99.90
20481;DHT22;10399;50.754;3.366;2023-04-28T06:31:33;15.60;99.90
20481;DHT22;10399;50.754;3.366;2023-04-28T06:34:00;15.80;99.90
20481;DHT22;10399;50.754;3.366;2023-04-28T06:36:27;15.90;99.90
20481;DHT22;10399;50.754;3.366;2023-04-28T06:38:54;16.00;99.90
20481;DHT22;10399;50.754;3.366;2023-04-28T06:41:21;16.00;99.90
20481;DHT22;10399;50.754;3.366;2023-04-28T06:43:48;16.10;99.90
20481;DHT22;10399;50.754;3.366;2023-04-28T06:46:16;16.10;99.90
20481;DHT22;10399;50.754;3.366;2023-04-28T06:48:43;16.10;99.90
20481;DHT22;10399;50.754;3.366;2023-04-28T06:51:10;16.00;99.90
20481;DHT22;10399;50.754;3.366;2023-04-28T06:53:37;16.10;99.90
20481;DHT22;10399;50.754;3.366;2023-04-28T06:56:04;16.10;99.90
20481;DHT22;10399;50.754;3.366;2023-04-28T06:58:33;16.10;99.90
20481;DHT22;10399;50.754;3.366;2023-04-28T07:01:01;16.20;99.90
20481;DHT22;10399;50.754;3.366;2023-04-28T07:03:30;16.30;99.90
20481;DHT22;10399;50.754;3.366;2023-04-28T07:05:58;16.40;99.90
20481;DHT22;10399;50.754;3.366;2023-04-28T07:08:25;16.30;99.90
20481;DHT22;10399;50.754;3.366;2023-04-28T07:10:52;16.40;99.90
20481;DHT22;10399;50.754;3.366;2023-04-28T07:13:19;16.40;99.90
20481;DHT22;10399;50.754;3.366;2023-04-28T07:15:46;16.30;99.90
20481;DHT22;10399;50.754;3.366;2023-04-28T07:18:14;16.30;99.90
20481;DHT22;10399;50.754;3.366;2023-04-28T07:20:41;16.40;99.90
20481;DHT22;10399;50.754;3.366;2023-04-28T07:23:08;16.50;99.90
20481;DHT22;10399;50.754;3.366;2023-04-28T07:25:35;16.40;99.90
20481;DHT22;10399;50.754;3.366;2023-04-28T07:28:03;16.40;99.90
20481;DHT22;10399;50.754;3.366;2023-04-28T07:30:31;16.30;99.90
20481;DHT22;10399;50.754;3.366;2023-04-28T07:32:59;16.20;99.90
20481;DHT22;10399;50.754;3.366;2023-04-28T07:35:26;16.10;99.90
20481;DHT22;10399;50.754;3.366;2023-04-28T07:37:53;16.00;99.90
20481;DHT22;10399;50.754;3.366;2023-04-28T07:40:20;16.00;99.90
20481;DHT22;10399;50.754;3.366;2023-04-28T07:42:47;16.00;99.90
20481;DHT22;10399;50.754;3.366;2023-04-28T07:45:15;16.10;99.90
20481;DHT22;10399;50.754;3.366;2023-04-28T07:47:42;16.20;99.90
20481;DHT22;10399;50.754;3.366;2023-04-28T07:50:10;16.30;99.90
20481;DHT22;10399;50.754;3.366;2023-04-28T07:52:37;16.20;99.90
20481;DHT22;10399;50.754;3.366;2023-04-28T07:55:05;16.00;99.90
20481;DHT22;10399;50.754;3.366;2023-04-28T07:57:32;16.00;99.90
20481;DHT22;10399;50.754;3.366;2023-04-28T07:59:59;16.20;99.90
20481;DHT22;10399;50.754;3.366;2023-04-28T08:02:27;16.20;99.90
20481;DHT22;10399;50.754;3.366;2023-04-28T08:04:55;16.30;99.90
20481;DHT22;10399;50.754;3.366;2023-04-28T08:07:22;16.50;99.90
20481;DHT22;10399;50.754;3.366;2023-04-28T08:09:50;16.50;99.90
20481;DHT22;10399;50.754;3.366;2023-04-28T08:12:19;16.50;99.90
20481;DHT22;10399;50.754;3.366;2023-04-28T08:14:46;16.60;99.90
20481;DHT22;10399;50.754;3.366;2023-04-28T08:17:14;16.50;99.90
20481;DHT22;10399;50.754;3.366;2023-04-28T08:19:41;16.30;99.90
20481;DHT22;10399;50.754;3.366;2023-04-28T08:22:11;16.30;99.90
20481;DHT22;10399;50.754;3.366;2023-04-28T08:24:38;16.40;99.90
20481;DHT22;10399;50.754;3.366;2023-04-28T08:27:05;16.30;99.90
20481;DHT22;10399;50.754;3.366;2023-04-28T08:29:32;16.20;99.90
20481;DHT22;10399;50.754;3.366;2023-04-28T08:31:59;16.10;99.90
20481;DHT22;10399;50.754;3.366;2023-04-28T08:34:30;16.10;99.90
20481;DHT22;10399;50.754;3.366;2023-04-28T08:36:57;16.20;99.90
20481;DHT22;10399;50.754;3.366;2023-04-28T08:39:24;16.20;99.90
20481;DHT22;10399;50.754;3.366;2023-04-28T08:41:53;16.20;99.90
20481;DHT22;10399;50.754;3.366;2023-04-28T08:44:20;16.20;99.90
20481;DHT22;10399;50.754;3.366;2023-04-28T08:46:52;16.20;99.90
20481;DHT22;10399;50.754;3.366;2023-04-28T08:49:22;16.20;99.90
20481;DHT22;10399;50.754;3.366;2023-04-28T08:51:58;16.00;99.90
20481;DHT22;10399;50.754;3.366;2023-04-28T08:54:30;16.00;99.90
20481;DHT22;10399;50.754;3.366;2023-04-28T08:56:58;16.00;99.90
20481;DHT22;10399;50.754;3.366;2023-04-28T08:59:25;16.10;99.90
20481;DHT22;10399;50.754;3.366;2023-04-28T09:01:53;16.10;99.90
20481;DHT22;10399;50.754;3.366;2023-04-28T09:04:20;16.20;99.90
20481;DHT22;10399;50.754;3.366;2023-04-28T09:06:48;16.00;99.90
20481;DHT22;10399;50.754;3.366;2023-04-28T09:09:23;16.00;99.90
20481;DHT22;10399;50.754;3.366;2023-04-28T09:11:55;15.90;99.90
20481;DHT22;10399;50.754;3.366;2023-04-28T09:14:25;15.80;99.90
20481;DHT22;10399;50.754;3.366;2023-04-28T09:16:52;15.80;99.90
20481;DHT22;10399;50.754;3.366;2023-04-28T09:19:20;15.80;99.90
20481;DHT22;10399;50.754;3.366;2023-04-28T09:21:56;15.80;99.90
20481;DHT22;10399;50.754;3.366;2023-04-28T09:24:39;15.80;99.90
20481;DHT22;10399;50.754;3.366;2023-04-28T09:27:08;15.60;99.90
20481;DHT22;10399;50.754;3.366;2023-04-28T09:29:38;15.60;99.90
20481;DHT22;10399;50.754;3.366;2023-04-28T09:32:19;15.50;99.90
20481;DHT22;10399;50.754;3.366;2023-04-28T09:34:47;15.50;99.90
20481;DHT22;10399;50.754;3.366;2023-04-28T09:37:19;15.40;99.90
20481;DHT22;10399;50.754;3.366;2023-04-28T09:39:51;15.40;99.90
20481;DHT22;10399;50.754;3.366;2023-04-28T09:42:42;15.60;99.90
20481;DHT22;10399;50.754;3.366;2023-04-28T09:45:11;15.70;99.90
20481;DHT22;10399;50.754;3.366;2023-04-28T09:47:41;15.60;99.90
20481;DHT22;10399;50.754;3.366;2023-04-28T09:50:10;15.70;99.90
20481;DHT22;10399;50.754;3.366;2023-04-28T09:52:41;15.70;99.90
20481;DHT22;10399;50.754;3.366;2023-04-28T09:55:11;15.60;99.90
20481;DHT22;10399;50.754;3.366;2023-04-28T09:57:39;15.60;99.90
20481;DHT22;10399;50.754;3.366;2023-04-28T10:00:07;15.60;99.90
20481;DHT22;10399;50.754;3.366;2023-04-28T10:02:36;15.60;99.90
20481;DHT22;10399;50.754;3.366;2023-04-28T10:05:07;15.40;99.90
20481;DHT22;10399;50.754;3.366;2023-04-28T10:07:36;15.50;99.90
20481;DHT22;10399;50.754;3.366;2023-04-28T10:10:06;15.60;99.90
20481;DHT22;10399;50.754;3.366;2023-04-28T10:12:33;15.80;99.90
20481;DHT22;10399;50.754;3.366;2023-04-28T10:15:04;15.90;99.90
20481;DHT22;10399;50.754;3.366;2023-04-28T10:17:33;15.90;99.90
20481;DHT22;10399;50.754;3.366;2023-04-28T10:20:02;15.90;99.90
20481;DHT22;10399;50.754;3.366;2023-04-28T10:25:32;16.00;99.90
20481;DHT22;10399;50.754;3.366;2023-04-28T10:28:05;15.90;99.90
20481;DHT22;10399;50.754;3.366;2023-04-28T10:30:33;15.90;99.90
20481;DHT22;10399;50.754;3.366;2023-04-28T10:35:42;15.80;99.90
20481;DHT22;10399;50.754;3.366;2023-04-28T10:38:14;15.70;99.90
20481;DHT22;10399;50.754;3.366;2023-04-28T10:40:52;15.70;99.90
20481;DHT22;10399;50.754;3.366;2023-04-28T10:45:59;15.60;99.90
20481;DHT22;10399;50.754;3.366;2023-04-28T10:56:22;15.70;99.90
20481;DHT22;10399;50.754;3.366;2023-04-28T10:58:58;15.80;99.90
20481;DHT22;10399;50.754;3.366;2023-04-28T11:01:27;16.00;99.90
20481;DHT22;10399;50.754;3.366;2023-04-28T11:09:45;16.10;99.90
20481;DHT22;10399;50.754;3.366;2023-04-28T11:19:21;15.80;99.90
20481;DHT22;10399;50.754;3.366;2023-04-28T11:21:49;15.90;99.90
20481;DHT22;10399;50.754;3.366;2023-04-28T11:24:17;15.90;99.90
20481;DHT22;10399;50.754;3.366;2023-04-28T11:26:44;15.70;99.90
20481;DHT22;10399;50.754;3.366;2023-04-28T11:29:11;15.90;99.90
20481;DHT22;10399;50.754;3.366;2023-04-28T11:31:48;15.80;99.90
20481;DHT22;10399;50.754;3.366;2023-04-28T11:34:20;15.90;99.90
20481;DHT22;10399;50.754;3.366;2023-04-28T11:36:48;16.00;99.90
20481;DHT22;10399;50.754;3.366;2023-04-28T11:39:15;15.80;99.90
20481;DHT22;10399;50.754;3.366;2023-04-28T11:41:43;15.70;99.90
20481;DHT22;10399;50.754;3.366;2023-04-28T11:44:19;15.70;99.90
20481;DHT22;10399;50.754;3.366;2023-04-28T11:46:51;15.90;99.90
20481;DHT22;10399;50.754;3.366;2023-04-28T11:49:22;15.90;99.90
20481;DHT22;10399;50.754;3.366;2023-04-28T11:51:57;16.00;99.90
20481;DHT22;10399;50.754;3.366;2023-04-28T11:54:30;15.90;99.90
20481;DHT22;10399;50.754;3.366;2023-04-28T11:56:58;16.10;99.90
20481;DHT22;10399;50.754;3.366;2023-04-28T11:59:28;16.20;99.90
20481;DHT22;10399;50.754;3.366;2023-04-28T12:01:58;16.20;99.90
20481;DHT22;10399;50.754;3.366;2023-04-28T12:07:04;16.30;99.90
20481;DHT22;10399;50.754;3.366;2023-04-28T12:09:33;16.20;99.90
20481;DHT22;10399;50.754;3.366;2023-04-28T12:14:31;16.00;99.90
20481;DHT22;10399;50.754;3.366;2023-04-28T12:17:01;16.20;99.90
20481;DHT22;10399;50.754;3.366;2023-04-28T12:19:28;16.30;99.90
20481;DHT22;10399;50.754;3.366;2023-04-28T12:22:05;16.40;99.90
20481;DHT22;10399;50.754;3.366;2023-04-28T12:24:33;16.50;99.90
20481;DHT22;10399;50.754;3.366;2023-04-28T12:27:22;16.50;99.90
20481;DHT22;10399;50.754;3.366;2023-04-28T12:29:50;16.40;99.90
20481;DHT22;10399;50.754;3.366;2023-04-28T12:32:18;16.30;99.90
20481;DHT22;10399;50.754;3.366;2023-04-28T12:34:46;16.40;99.90
20481;DHT22;10399;50.754;3.366;2023-04-28T12:37:13;16.60;99.90
20481;DHT22;10399;50.754;3.366;2023-04-28T12:39:40;16.60;99.90
20481;DHT22;10399;50.754;3.366;2023-04-28T12:42:08;16.80;99.90
20481;DHT22;10399;50.754;3.366;2023-04-28T12:44:36;16.80;99.90
20481;DHT22;10399;50.754;3.366;2023-04-28T12:47:06;16.90;99.90
20481;DHT22;10399;50.754;3.366;2023-04-28T12:49:34;16.80;99.90
20481;DHT22;10399;50.754;3.366;2023-04-28T12:52:02;16.80;99.90
20481;DHT22;10399;50.754;3.366;2023-04-28T12:54:29;16.90;99.90
20481;DHT22;10399;50.754;3.366;2023-04-28T12:56:57;17.10;99.90
20481;DHT22;10399;50.754;3.366;2023-04-28T12:59:24;17.10;99.90
20481;DHT22;10399;50.754;3.366;2023-04-28T13:01:51;17.10;99.90
20481;DHT22;10399;50.754;3.366;2023-04-28T13:04:18;17.00;99.90
20481;DHT22;10399;50.754;3.366;2023-04-28T13:06:47;17.10;99.90
20481;DHT22;10399;50.754;3.366;2023-04-28T13:09:14;17.20;99.90
20481;DHT22;10399;50.754;3.366;2023-04-28T13:11:42;17.30;99.90
20481;DHT22;10399;50.754;3.366;2023-04-28T13:14:09;17.40;99.90
20481;DHT22;10399;50.754;3.366;2023-04-28T13:16:36;17.40;99.90
20481;DHT22;10399;50.754;3.366;2023-04-28T13:19:04;17.30;99.90
20481;DHT22;10399;50.754;3.366;2023-04-28T13:21:35;17.20;99.90
20481;DHT22;10399;50.754;3.366;2023-04-28T13:24:05;17.10;99.90
20481;DHT22;10399;50.754;3.366;2023-04-28T13:26:32;17.10;99.90
20481;DHT22;10399;50.754;3.366;2023-04-28T13:29:00;17.10;99.90
20481;DHT22;10399;50.754;3.366;2023-04-28T13:31:28;17.30;99.90
20481;DHT22;10399;50.754;3.366;2023-04-28T13:33:58;17.20;99.90
20481;DHT22;10399;50.754;3.366;2023-04-28T13:36:27;17.10;99.90
20481;DHT22;10399;50.754;3.366;2023-04-28T13:39:04;17.20;99.90
20481;DHT22;10399;50.754;3.366;2023-04-28T13:41:31;17.30;99.90
20481;DHT22;10399;50.754;3.366;2023-04-28T13:43:58;17.20;99.90
20481;DHT22;10399;50.754;3.366;2023-04-28T13:46:26;17.00;99.90
20481;DHT22;10399;50.754;3.366;2023-04-28T13:48:53;17.20;99.90
20481;DHT22;10399;50.754;3.366;2023-04-28T13:51:21;17.00;99.90
20481;DHT22;10399;50.754;3.366;2023-04-28T13:53:50;16.70;99.90
20481;DHT22;10399;50.754;3.366;2023-04-28T13:56:17;16.50;99.90
20481;DHT22;10399;50.754;3.366;2023-04-28T13:58:44;16.50;99.90
20481;DHT22;10399;50.754;3.366;2023-04-28T14:01:11;16.40;99.90
20481;DHT22;10399;50.754;3.366;2023-04-28T14:03:38;16.40;99.90
20481;DHT22;10399;50.754;3.366;2023-04-28T14:06:06;16.60;99.90
20481;DHT22;10399;50.754;3.366;2023-04-28T14:08:33;16.60;99.90
20481;DHT22;10399;50.754;3.366;2023-04-28T14:11:00;16.70;99.90
20481;DHT22;10399;50.754;3.366;2023-04-28T14:13:27;16.80;99.90
20481;DHT22;10399;50.754;3.366;2023-04-28T14:15:55;16.70;99.90
20481;DHT22;10399;50.754;3.366;2023-04-28T14:18:26;17.00;99.90
20481;DHT22;10399;50.754;3.366;2023-04-28T14:20:53;17.10;99.90
20481;DHT22;10399;50.754;3.366;2023-04-28T14:23:24;17.00;99.90
20481;DHT22;10399;50.754;3.366;2023-04-28T14:25:54;16.90;99.90
20481;DHT22;10399;50.754;3.366;2023-04-28T14:28:22;16.80;99.90
20481;DHT22;10399;50.754;3.366;2023-04-28T14:30:49;16.80;99.90
20481;DHT22;10399;50.754;3.366;2023-04-28T14:33:17;16.80;99.90
20481;DHT22;10399;50.754;3.366;2023-04-28T14:35:44;16.70;99.90
20481;DHT22;10399;50.754;3.366;2023-04-28T14:38:12;16.50;99.90
20481;DHT22;10399;50.754;3.366;2023-04-28T14:40:39;16.60;99.90
20481;DHT22;10399;50.754;3.366;2023-04-28T14:43:08;16.50;99.90
20481;DHT22;10399;50.754;3.366;2023-04-28T14:45:36;16.50;99.90
20481;DHT22;10399;50.754;3.366;2023-04-28T14:48:03;16.50;99.90
20481;DHT22;10399;50.754;3.366;2023-04-28T14:50:32;16.30;99.90
20481;DHT22;10399;50.754;3.366;2023-04-28T14:53:00;16.10;99.90
20481;DHT22;10399;50.754;3.366;2023-04-28T14:55:32;16.00;99.90
20481;DHT22;10399;50.754;3.366;2023-04-28T14:57:59;16.00;99.90
20481;DHT22;10399;50.754;3.366;2023-04-28T15:00:26;15.80;99.90
20481;DHT22;10399;50.754;3.366;2023-04-28T15:02:53;15.70;99.90
20481;DHT22;10399;50.754;3.366;2023-04-28T15:05:22;15.50;99.90
20481;DHT22;10399;50.754;3.366;2023-04-28T15:07:51;15.60;99.90
20481;DHT22;10399;50.754;3.366;2023-04-28T15:10:18;15.70;99.90
20481;DHT22;10399;50.754;3.366;2023-04-28T15:12:47;15.80;99.90
20481;DHT22;10399;50.754;3.366;2023-04-28T15:15:14;16.00;99.90
20481;DHT22;10399;50.754;3.366;2023-04-28T15:17:42;16.00;99.90
20481;DHT22;10399;50.754;3.366;2023-04-28T15:20:09;16.10;99.90
20481;DHT22;10399;50.754;3.366;2023-04-28T15:22:37;16.20;99.90
20481;DHT22;10399;50.754;3.366;2023-04-28T15:25:04;16.30;99.90
20481;DHT22;10399;50.754;3.366;2023-04-28T15:27:31;16.50;99.90
20481;DHT22;10399;50.754;3.366;2023-04-28T15:29:59;16.30;99.90
20481;DHT22;10399;50.754;3.366;2023-04-28T15:32:26;16.40;99.90
20481;DHT22;10399;50.754;3.366;2023-04-28T15:34:56;16.20;99.90
20481;DHT22;10399;50.754;3.366;2023-04-28T15:40:10;16.00;99.90
20481;DHT22;10399;50.754;3.366;2023-04-28T15:42:37;15.80;99.90
20481;DHT22;10399;50.754;3.366;2023-04-28T15:45:08;15.90;99.90
20481;DHT22;10399;50.754;3.366;2023-04-28T15:47:39;16.10;99.90
20481;DHT22;10399;50.754;3.366;2023-04-28T15:50:10;16.20;99.90
20481;DHT22;10399;50.754;3.366;2023-04-28T15:52:38;16.10;99.90
20481;DHT22;10399;50.754;3.366;2023-04-28T15:55:07;15.80;99.90
20481;DHT22;10399;50.754;3.366;2023-04-28T15:57:35;15.70;99.90
20481;DHT22;10399;50.754;3.366;2023-04-28T16:00:03;15.60;99.90
20481;DHT22;10399;50.754;3.366;2023-04-28T16:02:32;15.60;99.90
20481;DHT22;10399;50.754;3.366;2023-04-28T16:05:01;15.40;99.90
20481;DHT22;10399;50.754;3.366;2023-04-28T16:07:31;15.30;99.90
20481;DHT22;10399;50.754;3.366;2023-04-28T16:10:04;15.30;99.90
20481;DHT22;10399;50.754;3.366;2023-04-28T16:12:34;15.40;99.90